Time;durP1;ratioP1;P1;durP2;ratioP2;P2;SDS_P1;SDS_P2;PMS_P1;PMS_P2;Temp;Humidity;BMP_temperature;BMP_pressure;BME280_temperature;BME280_humidity;BME280_pressure;Samples;Min_cycle;Max_cycle;Signal;HPM_P1;HPM_P2
2021/07/22 00:02:26;;;;;;;21.23;12.38;;;;;;;14.92;84.01;102526.44;4995588;28;20084;-74
2021/07/22 00:04:51;;;;;;;26.88;12.07;;;;;;;14.87;84.08;102534.00;4999795;28;20466;-75
2021/07/22 00:07:17;;;;;;;24.00;12.18;;;;;;;14.86;84.14;102524.28;4999126;28;20078;-75
2021/07/22 00:09:42;;;;;;;22.38;13.30;;;;;;;14.84;84.60;102524.41;5000213;28;20039;-74
2021/07/22 00:12:08;;;;;;;20.30;12.50;;;;;;;14.85;85.03;102525.25;4999448;28;20321;-74
2021/07/22 00:14:34;;;;;;;21.85;13.32;;;;;;;14.81;84.98;102527.34;5000006;28;20034;-74
2021/07/22 00:17:05;;;;;;;29.77;14.18;;;;;;;14.79;85.29;102524.78;4998912;28;20117;-74
2021/07/22 00:19:30;;;;;;;21.73;12.43;;;;;;;14.77;85.55;102517.84;4999678;28;20044;-74
2021/07/22 00:21:57;;;;;;;26.05;12.93;;;;;;;14.74;84.95;102520.78;4997738;28;20034;-74
2021/07/22 00:24:22;;;;;;;25.63;14.27;;;;;;;14.71;85.01;102521.88;4999245;28;20027;-74
2021/07/22 00:26:48;;;;;;;21.10;12.23;;;;;;;14.69;85.17;102528.31;4999046;28;20038;-74
2021/07/22 00:29:13;;;;;;;26.15;14.27;;;;;;;14.66;85.35;102520.53;4998739;28;20518;-74
2021/07/22 00:31:38;;;;;;;22.75;13.63;;;;;;;14.64;85.62;102515.31;4997992;28;20036;-74
2021/07/22 00:34:04;;;;;;;24.55;14.73;;;;;;;14.59;85.52;102518.31;4998908;28;20069;-74
2021/07/22 00:36:29;;;;;;;24.52;13.95;;;;;;;14.56;85.35;102518.59;4999180;28;20112;-74
2021/07/22 00:38:54;;;;;;;28.27;14.50;;;;;;;14.53;85.80;102510.78;4999164;28;20065;-74
2021/07/22 00:41:20;;;;;;;24.08;14.30;;;;;;;14.50;85.74;102511.03;4997093;28;20034;-74
2021/07/22 00:43:45;;;;;;;23.67;14.75;;;;;;;14.46;85.57;102502.44;4999287;28;20038;-74
2021/07/22 00:46:11;;;;;;;30.35;16.00;;;;;;;14.46;86.10;102512.25;4998521;28;20062;-74
2021/07/22 00:48:37;;;;;;;26.60;14.30;;;;;;;14.40;85.66;102508.25;4999062;28;20038;-73
2021/07/22 00:51:03;;;;;;;29.02;15.95;;;;;;;14.37;85.48;102507.66;4998285;28;20062;-74
2021/07/22 00:53:28;;;;;;;33.28;15.95;;;;;;;14.31;85.60;102506.31;4998958;28;20069;-74
2021/07/22 00:55:54;;;;;;;29.33;16.25;;;;;;;14.28;86.08;102506.56;4997547;28;20065;-74
2021/07/22 00:58:19;;;;;;;29.70;15.93;;;;;;;14.24;85.62;102505.09;4998485;28;20038;-74
2021/07/22 01:00:44;;;;;;;29.08;15.77;;;;;;;14.22;85.80;102509.72;4998895;28;20062;-74
2021/07/22 01:03:10;;;;;;;26.85;14.85;;;;;;;14.18;86.05;102516.28;4998152;28;20034;-74
2021/07/22 01:05:36;;;;;;;34.88;17.00;;;;;;;14.15;86.24;102513.88;4997327;28;20054;-74
2021/07/22 01:08:03;;;;;;;27.27;16.50;;;;;;;14.13;86.05;102515.81;4998199;28;20031;-74
2021/07/22 01:10:29;;;;;;;29.70;16.23;;;;;;;14.09;86.17;102515.19;4998595;28;20482;-74
2021/07/22 01:12:54;;;;;;;30.27;16.30;;;;;;;14.06;86.07;102519.00;4997953;28;20061;-74
2021/07/22 01:15:19;;;;;;;30.85;17.08;;;;;;;14.03;86.25;102508.53;4993556;28;20129;-74
2021/07/22 01:17:49;;;;;;;29.67;16.75;;;;;;;14.01;86.53;102509.63;4994464;28;20030;-74
2021/07/22 01:20:17;;;;;;;29.92;16.48;;;;;;;13.99;85.98;102503.50;4994944;28;20027;-74
2021/07/22 01:22:44;;;;;;;30.23;16.33;;;;;;;13.97;86.92;102506.31;4994334;28;20490;-74
2021/07/22 01:25:10;;;;;;;35.80;18.55;;;;;;;13.93;86.66;102508.38;4993448;28;20042;-74
2021/07/22 01:27:36;;;;;;;29.13;17.02;;;;;;;13.90;86.27;102503.28;4995609;28;20100;-74
2021/07/22 01:30:02;;;;;;;30.88;15.98;;;;;;;13.88;86.35;102499.88;4995589;28;20475;-74
2021/07/22 01:32:27;;;;;;;33.92;17.65;;;;;;;13.86;86.44;102499.13;4995036;28;20034;-74
2021/07/22 01:34:52;;;;;;;34.05;17.70;;;;;;;13.84;86.48;102503.75;4995593;28;20529;-74
2021/07/22 01:37:18;;;;;;;35.33;17.75;;;;;;;13.81;86.93;102506.69;4994989;28;20042;-74
2021/07/22 01:39:43;;;;;;;34.33;18.33;;;;;;;13.79;86.85;102499.75;4993879;28;20065;-74
2021/07/22 01:42:09;;;;;;;35.67;18.67;;;;;;;13.77;86.97;102496.34;4994503;28;20208;-74
2021/07/22 01:44:34;;;;;;;38.75;20.17;;;;;;;13.75;87.33;102499.13;4995499;28;20038;-74
2021/07/22 01:47:03;;;;;;;38.20;20.05;;;;;;;13.74;87.22;102500.94;4995143;28;20422;-74
2021/07/22 01:49:28;;;;;;;40.33;20.42;;;;;;;13.72;86.91;102502.06;4994490;28;20058;-74
2021/07/22 01:51:53;;;;;;;39.35;19.50;;;;;;;13.68;86.72;102504.09;4995005;28;20031;-73
2021/07/22 01:54:19;;;;;;;39.58;20.10;;;;;;;13.65;86.85;102501.66;4994237;28;20057;-74
2021/07/22 01:56:44;;;;;;;44.42;22.13;;;;;;;13.62;86.95;102506.41;4993964;28;20046;-74
2021/07/22 01:59:09;;;;;;;47.00;23.17;;;;;;;13.59;87.02;102507.50;4994376;28;20177;-73
2021/07/22 02:01:35;;;;;;;45.00;22.90;;;;;;;13.56;87.49;102503.22;4995120;28;20390;-73
2021/07/22 02:04:00;;;;;;;46.60;22.33;;;;;;;13.53;87.25;102505.28;4995426;28;20493;-74
2021/07/22 02:06:25;;;;;;;47.92;21.88;;;;;;;13.49;87.51;102504.66;4993158;28;20673;-74
2021/07/22 02:08:51;;;;;;;45.15;24.05;;;;;;;13.49;87.58;102501.13;4994692;28;20038;-74
2021/07/22 02:11:16;;;;;;;42.25;22.15;;;;;;;13.46;87.09;102506.72;4992907;28;20034;-74
2021/07/22 02:13:41;;;;;;;46.17;22.75;;;;;;;13.47;88.11;102509.28;4994805;28;20030;-74
2021/07/22 02:16:08;;;;;;;48.97;24.88;;;;;;;13.46;88.38;102499.53;4994717;28;20065;-74
2021/07/22 02:18:33;;;;;;;48.50;23.45;;;;;;;13.46;88.47;102501.38;4993258;28;20141;-74
2021/07/22 02:21:07;;;;;;;49.05;24.42;;;;;;;13.43;88.05;102505.13;4994390;28;20027;-74
2021/07/22 02:23:35;;;;;;;49.50;22.52;;;;;;;13.39;87.53;102504.53;4993719;28;20109;-74
2021/07/22 02:26:07;;;;;;;45.75;22.33;;;;;;;13.37;87.53;102502.94;4993362;28;20154;-74
2021/07/22 02:28:33;;;;;;;47.75;23.42;;;;;;;13.35;87.48;102502.22;4993755;28;20121;-74
2021/07/22 02:30:59;;;;;;;54.55;23.20;;;;;;;13.33;88.07;102499.63;4994288;28;20117;-74
2021/07/22 02:33:25;;;;;;;49.15;24.63;;;;;;;13.31;88.03;102496.19;4993637;28;20121;-74
2021/07/22 02:35:51;;;;;;;50.95;24.63;;;;;;;13.31;88.34;102501.53;4994407;28;20030;-73
2021/07/22 02:38:16;;;;;;;50.55;24.88;;;;;;;13.30;88.26;102496.31;4993949;28;20053;-74
2021/07/22 02:40:41;;;;;;;40.90;21.48;;;;;;;13.27;88.11;102505.44;4994095;28;20037;-74
2021/07/22 02:43:07;;;;;;;46.15;21.67;;;;;;;13.24;87.90;102508.31;4994144;28;20041;-74
2021/07/22 02:45:32;;;;;;;44.08;20.88;;;;;;;13.23;88.44;102510.13;4993630;28;20466;-73
2021/07/22 02:47:58;;;;;;;48.80;24.58;;;;;;;13.20;88.11;102505.03;4993993;28;20054;-74
2021/07/22 02:50:23;;;;;;;37.58;19.83;;;;;;;13.17;87.81;102507.94;4993282;28;20038;-74
2021/07/22 02:52:49;;;;;;;49.80;23.95;;;;;;;13.18;88.53;102506.09;4993633;28;20041;-74
2021/07/22 02:55:14;;;;;;;56.22;26.63;;;;;;;13.20;89.08;102510.38;4993355;28;20070;-74
2021/07/22 02:57:40;;;;;;;46.80;22.77;;;;;;;13.17;88.74;102515.94;4994171;28;20409;-74
2021/07/22 03:00:06;;;;;;;50.88;24.83;;;;;;;13.15;88.60;102507.22;4993755;28;20026;-74
2021/07/22 03:02:32;;;;;;;46.38;23.33;;;;;;;13.15;89.04;102515.22;4992976;28;20471;-74
2021/07/22 03:04:57;;;;;;;50.28;23.33;;;;;;;13.12;88.58;102514.59;4993656;28;20034;-74
2021/07/22 03:07:23;;;;;;;46.30;23.40;;;;;;;13.11;88.57;102521.75;4992643;28;20483;-74
2021/07/22 03:09:49;;;;;;;44.63;23.83;;;;;;;13.11;89.06;102513.75;4993640;28;20085;-74
2021/07/22 03:12:14;;;;;;;45.65;21.33;;;;;;;13.07;88.52;102514.94;4992945;28;20035;-73
2021/07/22 03:14:40;;;;;;;40.45;20.80;;;;;;;13.06;89.04;102513.22;4993707;28;20375;-74
2021/07/22 03:17:05;;;;;;;42.97;21.77;;;;;;;13.03;88.44;102516.13;4993419;28;20367;-74
2021/07/22 03:19:30;;;;;;;35.42;18.85;;;;;;;12.98;88.61;102507.63;4992746;28;20035;-74
2021/07/22 03:21:56;;;;;;;31.40;17.48;;;;;;;12.91;87.79;102514.38;4993240;28;20041;-74
2021/07/22 03:24:21;;;;;;;37.72;19.95;;;;;;;12.86;87.73;102504.03;4993012;28;20026;-74
2021/07/22 03:26:46;;;;;;;26.98;15.77;;;;;;;12.82;87.91;102506.09;4992297;28;20039;-74
2021/07/22 03:29:12;;;;;;;48.92;22.35;;;;;;;12.84;88.94;102505.97;4992097;28;20474;-74
2021/07/22 03:31:37;;;;;;;44.35;22.23;;;;;;;12.82;89.31;102513.22;4992598;28;20053;-74
2021/07/22 03:34:02;;;;;;;46.15;21.08;;;;;;;12.77;88.65;102505.56;4993127;28;20058;-73
2021/07/22 03:36:28;;;;;;;41.13;21.25;;;;;;;12.79;89.25;102508.97;4991928;28;20047;-75
2021/07/22 03:38:53;;;;;;;37.95;18.98;;;;;;;12.76;89.15;102508.34;4992027;28;20035;-74
2021/07/22 03:41:19;;;;;;;40.05;20.02;;;;;;;12.74;89.08;102507.63;4992604;28;20045;-74
2021/07/22 03:43:44;;;;;;;42.58;20.75;;;;;;;12.75;89.59;102512.84;4993101;28;20496;-74
2021/07/22 03:46:09;;;;;;;36.05;20.05;;;;;;;12.74;89.83;102511.13;4993204;28;20490;-74
2021/07/22 03:48:35;;;;;;;40.00;19.45;;;;;;;12.74;89.60;102502.28;4992569;28;20101;-74
2021/07/22 03:51:01;;;;;;;35.05;18.92;;;;;;;12.73;89.54;102508.56;4993101;28;20043;-74
2021/07/22 03:53:26;;;;;;;37.22;19.30;;;;;;;12.73;89.66;102505.91;4992962;28;20041;-74
2021/07/22 03:55:51;;;;;;;35.30;19.15;;;;;;;12.72;89.80;102506.84;4991952;28;20026;-74
2021/07/22 03:58:17;;;;;;;42.10;19.45;;;;;;;12.70;89.60;102512.31;4992888;28;20110;-74
2021/07/22 04:00:43;;;;;;;35.92;20.23;;;;;;;12.72;89.88;102513.06;4992356;28;20045;-74
2021/07/22 04:03:08;;;;;;;32.08;17.55;;;;;;;12.69;89.63;102510.63;4991501;28;20403;-74
2021/07/22 04:05:34;;;;;;;32.20;17.52;;;;;;;12.68;89.82;102506.25;4991726;28;20062;-74
2021/07/22 04:08:00;;;;;;;32.45;17.80;;;;;;;12.70;89.95;102512.31;4991992;28;20471;-74
2021/07/22 04:10:27;;;;;;;37.58;19.63;;;;;;;12.74;90.46;102512.94;4992422;28;20039;-74
2021/07/22 04:12:57;;;;;;;38.92;20.48;;;;;;;12.80;90.65;102513.34;4991620;28;20034;-74
2021/07/22 04:15:24;;;;;;;35.15;18.58;;;;;;;12.86;90.75;102509.38;4992111;28;20031;-74
2021/07/22 04:17:50;;;;;;;33.20;17.52;;;;;;;12.91;90.58;102509.88;4991367;28;20062;-74
2021/07/22 04:20:16;;;;;;;31.45;17.58;;;;;;;12.94;90.27;102508.78;4992439;28;20061;-74
2021/07/22 04:22:41;;;;;;;30.38;16.70;;;;;;;12.95;90.42;102513.19;4992371;28;20030;-74
2021/07/22 04:25:07;;;;;;;26.17;16.45;;;;;;;12.96;90.27;102514.91;4992763;28;20062;-77
2021/07/22 04:27:32;;;;;;;23.88;15.85;;;;;;;12.98;90.17;102513.78;4992018;28;20118;-77
2021/07/22 04:30:00;;;;;;;28.65;16.42;;;;;;;13.00;90.14;102519.91;4992814;28;20113;-74
2021/07/22 04:32:26;;;;;;;34.15;16.92;;;;;;;13.01;89.94;102518.91;4992066;28;20035;-75
2021/07/22 04:34:51;;;;;;;32.20;16.90;;;;;;;13.08;90.35;102519.31;4992508;28;20080;-74
2021/07/22 04:37:17;;;;;;;28.83;16.80;;;;;;;13.17;90.33;102517.78;4992687;28;20383;-75
2021/07/22 04:39:42;;;;;;;24.40;15.60;;;;;;;13.29;90.39;102521.34;4992070;28;20030;-74
2021/07/22 04:42:08;;;;;;;26.10;15.38;;;;;;;13.40;90.32;102519.59;4992720;28;20073;-74
2021/07/22 04:44:33;;;;;;;23.08;14.68;;;;;;;13.54;89.60;102525.69;4990760;28;20466;-75
2021/07/22 04:46:59;;;;;;;22.80;14.18;;;;;;;13.65;89.33;102522.22;4992517;28;20042;-74
2021/07/22 04:49:24;;;;;;;22.65;13.57;;;;;;;13.71;88.41;102525.25;4993630;28;20034;-75
2021/07/22 04:51:49;;;;;;;22.58;13.68;;;;;;;13.77;87.68;102521.25;4996547;28;20039;-74
2021/07/22 04:54:15;;;;;;;23.60;12.68;;;;;;;13.80;86.96;102520.19;4996571;28;20463;-74
2021/07/22 04:56:41;;;;;;;19.30;12.85;;;;;;;13.80;86.87;102523.69;4995476;28;20038;-77
2021/07/22 04:59:06;;;;;;;18.73;12.77;;;;;;;13.81;86.71;102521.88;4996141;28;20125;-75
2021/07/22 05:01:31;;;;;;;21.02;12.73;;;;;;;13.79;86.45;102529.16;4995447;28;20030;-75
2021/07/22 05:03:57;;;;;;;23.42;13.60;;;;;;;13.78;86.70;102522.09;4995833;28;20037;-74
2021/07/22 05:06:22;;;;;;;19.02;12.18;;;;;;;13.76;86.57;102530.25;4994288;28;20054;-74
2021/07/22 05:08:47;;;;;;;19.98;12.57;;;;;;;13.79;86.42;102537.19;4995169;28;20030;-74
2021/07/22 05:11:13;;;;;;;18.70;12.07;;;;;;;13.80;86.82;102520.19;4994637;28;20045;-71
2021/07/22 05:13:42;;;;;;;23.25;13.40;;;;;;;13.81;86.74;102533.44;4994921;28;20041;-71
2021/07/22 05:16:08;;;;;;;21.20;12.57;;;;;;;13.82;86.56;102520.91;4995658;28;20034;-71
2021/07/22 05:18:34;;;;;;;23.95;12.93;;;;;;;13.85;86.56;102526.88;4994756;28;20053;-72
2021/07/22 05:21:04;;;;;;;18.98;12.13;;;;;;;13.89;86.72;102522.97;4995608;28;20042;-73
2021/07/22 05:23:30;;;;;;;17.83;11.70;;;;;;;13.95;86.77;102531.50;4993775;28;20034;-73
2021/07/22 05:25:55;;;;;;;20.75;11.82;;;;;;;13.98;86.24;102534.78;4995594;28;20037;-73
2021/07/22 05:28:21;;;;;;;21.55;11.85;;;;;;;14.03;85.72;102534.41;4995416;28;20035;-71
2021/07/22 05:30:46;;;;;;;19.98;11.80;;;;;;;14.10;85.67;102528.47;4994761;28;20483;-81
2021/07/22 05:33:11;;;;;;;16.40;10.43;;;;;;;14.19;84.01;102526.03;4995228;28;20062;-80
2021/07/22 05:35:37;;;;;;;20.52;10.68;;;;;;;14.28;84.41;102528.81;4994676;28;20038;-77
2021/07/22 05:38:02;;;;;;;17.63;10.60;;;;;;;14.35;84.06;102526.53;4995426;28;20039;-78
2021/07/22 05:40:27;;;;;;;21.00;10.90;;;;;;;14.41;83.67;102523.34;4995090;28;20038;-77
2021/07/22 05:42:53;;;;;;;17.08;10.93;;;;;;;14.45;83.73;102524.81;4994942;28;20030;-80
2021/07/22 05:45:19;;;;;;;21.08;10.20;;;;;;;14.49;83.56;102524.56;4993912;28;20030;-78
2021/07/22 05:47:44;;;;;;;16.23;9.95;;;;;;;14.54;83.24;102522.34;4994531;28;20041;-80
2021/07/22 05:50:10;;;;;;;19.27;9.38;;;;;;;14.58;81.75;102530.00;4995733;28;20160;-78
2021/07/22 05:52:35;;;;;;;15.75;9.90;;;;;;;14.68;81.90;102527.47;4994850;28;20101;-80
2021/07/22 05:55:00;;;;;;;17.30;9.50;;;;;;;14.76;81.51;102533.06;4995078;28;20038;-77
2021/07/22 05:57:26;;;;;;;17.80;9.45;;;;;;;14.83;80.92;102522.69;4994851;28;20114;-76
2021/07/22 05:59:52;;;;;;;14.27;8.27;;;;;;;14.92;79.78;102526.44;4992689;28;20105;-76
2021/07/22 06:02:17;;;;;;;15.80;9.32;;;;;;;15.02;80.50;102521.16;4994673;28;20034;-77
2021/07/22 06:04:43;;;;;;;14.80;9.30;;;;;;;15.11;79.41;102533.81;4994274;28;20049;-79
2021/07/22 06:07:08;;;;;;;13.05;8.40;;;;;;;15.21;79.89;102529.41;4994843;28;20054;-82
2021/07/22 06:09:33;;;;;;;9.55;8.10;;;;;;;15.31;79.32;102527.63;4993983;28;20153;-84
2021/07/22 06:11:59;;;;;;;14.68;8.52;;;;;;;15.44;78.78;102531.97;4994737;28;20034;-79
2021/07/22 06:14:24;;;;;;;11.40;7.93;;;;;;;15.58;77.74;102528.94;4994708;28;20049;-86
2021/07/22 06:16:49;;;;;;;13.82;7.90;;;;;;;15.74;76.98;102533.03;4992810;28;20038;-84
2021/07/22 06:19:15;;;;;;;11.15;7.68;;;;;;;15.86;76.75;102535.50;4993413;28;20085;-86
2021/07/22 06:21:40;;;;;;;12.98;7.60;;;;;;;15.94;74.11;102528.63;4992941;28;20034;-79
2021/07/22 06:24:05;;;;;;;11.07;7.20;;;;;;;15.99;73.34;102529.94;4994852;28;20541;-79
2021/07/22 06:26:34;;;;;;;14.68;7.40;;;;;;;16.08;73.04;102530.97;4994554;28;20026;-80
2021/07/22 06:29:01;;;;;;;10.40;7.45;;;;;;;16.17;73.81;102530.16;4994085;28;20517;-78
2021/07/22 06:31:27;;;;;;;14.80;7.80;;;;;;;16.28;73.14;102534.56;4994179;28;20479;-78
2021/07/22 06:33:52;;;;;;;11.02;7.85;;;;;;;16.35;73.21;102537.59;4993758;28;20037;-78
2021/07/22 06:36:18;;;;;;;10.70;6.70;;;;;;;16.43;71.36;102536.91;4994172;28;20425;-79
2021/07/22 06:38:43;;;;;;;11.38;7.05;;;;;;;16.50;71.22;102533.53;4992267;28;20041;-79
2021/07/22 06:41:10;;;;;;;11.48;7.15;;;;;;;16.54;71.10;102534.97;4994311;28;20042;-79
2021/07/22 06:43:35;;;;;;;10.13;7.07;;;;;;;16.61;71.62;102540.63;4993566;28;20030;-81
2021/07/22 06:46:01;;;;;;;13.38;7.47;;;;;;;16.69;69.97;102545.28;4992777;28;20077;-82
2021/07/22 06:48:26;;;;;;;11.02;7.20;;;;;;;16.81;70.99;102544.22;4993854;28;20536;-78
2021/07/22 06:50:52;;;;;;;11.13;7.13;;;;;;;16.92;70.06;102541.41;4993471;28;20542;-78
2021/07/22 06:53:18;;;;;;;19.73;6.72;;;;;;;17.12;68.89;102551.34;4994067;28;20035;-78
2021/07/22 06:55:43;;;;;;;8.75;6.68;;;;;;;17.32;69.29;102547.66;4992016;28;20038;-78
2021/07/22 06:58:10;;;;;;;12.13;6.43;;;;;;;17.53;67.02;102544.81;4993750;28;20096;-82
2021/07/22 07:00:36;;;;;;;10.27;6.68;;;;;;;17.80;67.61;102546.75;4993596;28;20062;-78
2021/07/22 07:03:10;;;;;;;11.10;6.43;;;;;;;18.04;65.58;102537.34;4992913;28;20042;-78
2021/07/22 07:05:35;;;;;;;12.40;6.82;;;;;;;18.21;65.47;102546.50;4993811;28;20037;-80
2021/07/22 07:08:01;;;;;;;12.20;6.22;;;;;;;18.32;64.21;102532.84;4993267;28;20034;-83
2021/07/22 07:10:27;;;;;;;12.35;6.45;;;;;;;18.49;64.52;102541.13;4992584;28;20038;-84
2021/07/22 07:12:52;;;;;;;11.80;5.88;;;;;;;18.67;63.94;102547.44;4991240;28;20036;-75
2021/07/22 07:15:19;;;;;;;8.80;6.32;;;;;;;18.71;65.40;102547.97;4993406;28;20501;-76
2021/07/22 07:17:45;;;;;;;9.85;6.30;;;;;;;18.85;62.57;102544.78;4993066;28;20080;-76
2021/07/22 07:20:10;;;;;;;14.45;6.43;;;;;;;18.93;61.71;102546.72;4993628;28;20043;-77
2021/07/22 07:22:36;;;;;;;9.38;6.18;;;;;;;19.03;62.35;102543.94;4993646;28;20034;-77
2021/07/22 07:25:01;;;;;;;9.63;6.57;;;;;;;19.14;61.79;102541.00;4992659;28;20368;-75
2021/07/22 07:27:27;;;;;;;11.18;5.82;;;;;;;19.23;61.94;102539.25;4993943;28;20026;-79
2021/07/22 07:29:52;;;;;;;7.45;6.18;;;;;;;19.31;62.46;102544.69;4991651;28;20540;-81
2021/07/22 07:32:17;;;;;;;9.88;5.85;;;;;;;19.43;62.46;102548.00;4993635;28;20034;-76
2021/07/22 07:34:43;;;;;;;8.25;6.00;;;;;;;19.68;60.57;102545.50;4992735;28;20113;-76
2021/07/22 07:37:08;;;;;;;8.23;5.95;;;;;;;19.90;60.46;102546.88;4993549;28;20494;-77
2021/07/22 07:39:34;;;;;;;9.30;5.63;;;;;;;20.14;58.94;102538.03;4993271;28;20455;-79
2021/07/22 07:42:01;;;;;;;7.57;5.40;;;;;;;20.34;58.82;102540.50;4993044;28;20036;-76
2021/07/22 07:44:27;;;;;;;10.02;5.65;;;;;;;20.44;57.74;102547.44;4993180;28;20104;-81
2021/07/22 07:46:52;;;;;;;10.27;5.65;;;;;;;20.42;57.35;102540.50;4991282;28;20470;-78
2021/07/22 07:49:17;;;;;;;9.60;5.75;;;;;;;20.63;57.55;102542.81;4992040;28;20506;-79
2021/07/22 07:51:43;;;;;;;10.05;5.35;;;;;;;20.85;59.05;102544.03;4993125;28;20471;-81
2021/07/22 07:54:11;;;;;;;9.18;5.60;;;;;;;21.02;55.88;102552.19;4992017;28;20036;-79
2021/07/22 07:56:36;;;;;;;9.32;5.43;;;;;;;21.26;56.59;102552.22;4992967;28;20479;-79
2021/07/22 07:59:01;;;;;;;9.65;6.25;;;;;;;21.50;55.63;102553.28;4992195;28;20126;-80
2021/07/22 08:01:30;;;;;;;8.25;5.68;;;;;;;21.56;55.38;102555.28;4991238;28;20026;-80
2021/07/22 08:03:56;;;;;;;10.60;5.70;;;;;;;21.50;55.05;102553.28;4990964;28;20030;-80
2021/07/22 08:06:22;;;;;;;9.65;5.53;;;;;;;21.51;54.62;102552.22;4991862;28;20081;-80
2021/07/22 08:08:47;;;;;;;7.90;5.47;;;;;;;21.44;55.02;102549.34;4992272;28;20070;-81
2021/07/22 08:11:13;;;;;;;7.65;5.50;;;;;;;21.42;54.28;102551.38;4992553;28;20089;-79
2021/07/22 08:13:38;;;;;;;8.20;5.43;;;;;;;21.41;54.67;102549.69;4991489;28;20065;-83
2021/07/22 08:16:05;;;;;;;7.70;5.70;;;;;;;21.60;53.92;102553.06;4992338;28;20491;-80
2021/07/22 08:18:30;;;;;;;8.65;5.50;;;;;;;21.76;53.72;102550.34;4992858;28;20070;-80
2021/07/22 08:20:56;;;;;;;10.10;6.03;;;;;;;21.68;51.87;102544.97;4992130;28;20496;-79
2021/07/22 08:23:21;;;;;;;8.15;5.38;;;;;;;21.75;54.07;102550.50;4994668;28;20081;-78
2021/07/22 08:25:47;;;;;;;6.85;5.05;;;;;;;21.57;54.12;102551.56;4996128;28;20026;-79
2021/07/22 08:28:13;;;;;;;11.50;5.70;;;;;;;21.56;54.86;102552.59;4996584;28;20038;-79
2021/07/22 08:30:39;;;;;;;8.85;5.57;;;;;;;21.78;52.44;102545.63;4997006;28;20043;-78
2021/07/22 08:33:04;;;;;;;8.05;5.45;;;;;;;22.02;50.78;102550.13;4995974;28;20113;-79
2021/07/22 08:35:30;;;;;;;8.57;5.57;;;;;;;22.04;53.09;102544.53;4996446;28;20042;-79
2021/07/22 08:37:55;;;;;;;7.63;5.55;;;;;;;21.95;52.90;102545.59;4995836;28;20034;-79
2021/07/22 08:40:21;;;;;;;8.02;5.20;;;;;;;22.47;49.53;102544.25;4996188;28;20035;-77
2021/07/22 08:42:47;;;;;;;11.73;5.72;;;;;;;22.95;49.44;102546.84;4996366;28;20026;-76
2021/07/22 08:45:13;;;;;;;8.70;5.32;;;;;;;23.35;47.45;102540.28;4994462;28;20038;-76
2021/07/22 08:47:40;;;;;;;6.70;4.90;;;;;;;23.42;47.17;102541.22;4996379;28;20034;-79
2021/07/22 08:50:07;;;;;;;8.25;4.88;;;;;;;23.48;46.85;102538.78;4995778;28;20042;-78
2021/07/22 08:52:33;;;;;;;7.78;5.25;;;;;;;23.33;47.38;102534.16;4990252;28;20038;-80
2021/07/22 08:54:58;;;;;;;13.10;5.95;;;;;;;23.11;48.43;102537.75;4986588;28;20045;-80
2021/07/22 08:57:31;;;;;;;7.25;4.68;;;;;;;22.98;47.87;102536.44;4992928;28;20065;-75
2021/07/22 08:59:58;;;;;;;8.00;5.65;;;;;;;22.42;48.31;102539.31;4986420;28;20034;-78
2021/07/22 09:02:29;;;;;;;7.18;5.38;;;;;;;22.33;49.66;102532.25;4994304;28;20112;-77
2021/07/22 09:04:59;;;;;;;10.23;5.35;;;;;;;22.25;51.23;102534.97;4993308;28;20040;-76
2021/07/22 09:07:26;;;;;;;8.10;5.13;;;;;;;22.33;51.20;102538.53;4993754;28;20552;-77
2021/07/22 09:10:07;;;;;;;8.05;4.60;;;;;;;22.77;50.70;102534.41;5000012;28;20022;-78
2021/07/22 09:12:41;;;;;;;6.03;4.60;;;;;;;22.84;50.61;102534.50;4994740;28;20034;-77
2021/07/22 09:15:08;;;;;;;7.65;4.88;;;;;;;22.84;49.81;102535.38;4992013;28;20022;-77
2021/07/22 09:17:34;;;;;;;8.45;4.85;;;;;;;22.95;48.13;102531.38;4995003;28;20029;-76
2021/07/22 09:19:59;;;;;;;5.53;4.65;;;;;;;23.05;49.69;102536.59;4994280;28;20034;-76
2021/07/22 09:22:43;;;;;;;6.88;5.13;;;;;;;23.07;49.00;102546.22;4994579;28;20437;-76
2021/07/22 09:25:10;;;;;;;15.15;5.05;;;;;;;22.85;47.54;102547.06;4994462;28;20073;-76
2021/07/22 09:27:43;;;;;;;6.90;4.93;;;;;;;22.80;49.95;102550.31;4996214;28;20034;-75
2021/07/22 09:30:10;;;;;;;7.43;4.63;;;;;;;22.80;51.31;102542.19;4994488;28;20105;-76
2021/07/22 09:32:38;;;;;;;8.80;4.95;;;;;;;22.79;50.22;102540.47;4995080;28;20081;-77
2021/07/22 09:35:10;;;;;;;5.90;4.53;;;;;;;23.02;49.60;102540.50;4993882;28;20038;-78
2021/07/22 09:37:37;;;;;;;6.95;4.60;;;;;;;23.44;48.68;102538.34;4995431;28;20037;-79
2021/07/22 09:40:04;;;;;;;9.15;4.68;;;;;;;24.03;46.68;102539.44;4994704;28;20038;-80
2021/07/22 09:42:40;;;;;;;8.63;4.55;;;;;;;25.59;44.16;102539.91;4994712;28;20069;-80
2021/07/22 09:45:16;;;;;;;8.80;4.95;;;;;;;27.41;38.77;102542.31;4993771;28;20510;-78
2021/07/22 09:47:42;;;;;;;7.97;4.35;;;;;;;28.84;35.24;102535.09;4994365;28;20030;-80
2021/07/22 09:50:14;;;;;;;8.32;4.28;;;;;;;29.56;35.33;102534.78;4993439;28;20434;-78
2021/07/22 09:52:40;;;;;;;8.27;4.35;;;;;;;29.74;34.34;102542.19;4994531;28;20027;-76
2021/07/22 09:55:27;;;;;;;9.63;4.32;;;;;;;29.27;35.90;102539.03;4993563;28;20042;-80
2021/07/22 09:58:00;;;;;;;7.80;4.22;;;;;;;28.32;36.64;102543.38;4993947;28;20061;-79
2021/07/22 10:00:27;;;;;;;8.75;4.60;;;;;;;27.87;37.28;102548.75;4994296;28;20096;-80
2021/07/22 10:02:55;;;;;;;8.30;4.30;;;;;;;27.86;38.71;102544.34;4994043;28;20097;-79
2021/07/22 10:05:26;;;;;;;9.98;4.55;;;;;;;28.36;36.92;102544.59;4993804;28;20043;-78
2021/07/22 10:07:53;;;;;;;8.45;4.60;;;;;;;28.98;36.54;102544.09;4994049;28;20080;-79
2021/07/22 10:10:20;;;;;;;8.15;4.53;;;;;;;29.11;34.57;102544.00;4993097;28;20073;-80
2021/07/22 10:12:56;;;;;;;8.32;4.30;;;;;;;29.36;34.04;102540.44;4994093;28;20118;-76
2021/07/22 10:15:24;;;;;;;7.28;4.47;;;;;;;29.40;35.57;102543.56;4993828;28;20495;-79
2021/07/22 10:17:53;;;;;;;6.75;5.00;;;;;;;29.22;34.35;102534.22;4994023;28;20038;-79
2021/07/22 10:20:19;;;;;;;7.65;4.72;;;;;;;27.89;37.43;102541.19;4992028;28;20474;-79
2021/07/22 10:22:46;;;;;;;6.80;4.75;;;;;;;26.86;37.99;102539.72;4993737;28;20041;-81
2021/07/22 10:25:13;;;;;;;7.05;4.05;;;;;;;27.59;38.48;102537.03;4993003;28;20073;-79
2021/07/22 10:27:43;;;;;;;12.65;4.38;;;;;;;27.50;37.32;102534.72;4993565;28;20038;-76
2021/07/22 10:30:18;;;;;;;7.45;4.20;;;;;;;26.81;38.96;102542.22;4992972;28;20022;-77
2021/07/22 10:32:48;;;;;;;7.88;4.45;;;;;;;26.47;39.61;102538.50;4993411;28;20109;-76
2021/07/22 10:35:25;;;;;;;6.75;4.75;;;;;;;26.98;39.58;102532.59;4992532;28;20501;-77
2021/07/22 10:38:09;;;;;;;7.90;4.15;;;;;;;27.77;37.40;102532.78;4993722;28;20041;-76
2021/07/22 10:40:57;;;;;;;7.80;3.80;;;;;;;28.10;36.69;102540.94;4993555;28;20028;-77
2021/07/22 10:43:41;;;;;;;5.68;3.80;;;;;;;28.60;35.69;102534.00;4993542;28;20085;-76
2021/07/22 10:46:15;;;;;;;8.73;4.00;;;;;;;29.44;35.15;102526.44;4992004;28;20041;-78
2021/07/22 10:48:42;;;;;;;6.93;4.00;;;;;;;29.52;34.00;102537.09;4992762;28;20042;-75
2021/07/22 10:51:15;;;;;;;6.82;3.97;;;;;;;28.11;35.81;102528.06;4992029;28;20030;-76
2021/07/22 10:53:40;;;;;;;8.20;3.95;;;;;;;26.84;37.68;102523.53;4993190;28;20057;-77
2021/07/22 10:56:07;;;;;;;8.13;4.28;;;;;;;27.26;37.88;102520.63;4992529;28;20057;-76
2021/07/22 10:58:33;;;;;;;9.65;4.05;;;;;;;27.52;36.67;102516.22;4992540;28;20081;-75
2021/07/22 11:00:59;;;;;;;7.82;4.30;;;;;;;27.50;37.90;102515.56;4992541;28;20426;-77
2021/07/22 11:06:04;;;;;;;9.27;3.67;;;;;;;28.64;35.80;102518.81;4972439;28;20099;-76
2021/07/22 11:08:31;;;;;;;5.47;3.90;;;;;;;28.93;34.72;102514.63;4973400;28;20183;-75
2021/07/22 11:10:58;;;;;;;5.05;3.95;;;;;;;28.55;35.82;102511.88;4973305;28;20063;-76
2021/07/22 11:13:50;;;;;;;7.38;4.00;;;;;;;29.14;34.39;102516.13;4988518;28;20031;-76
2021/07/22 11:16:25;;;;;;;9.68;4.10;;;;;;;28.94;34.38;102515.44;4970263;28;20050;-75